Time;durP1;ratioP1;P1;durP2;ratioP2;P2;SDS_P1;SDS_P2;PMS_P1;PMS_P2;Temp;Humidity;BMP_temperature;BMP_pressure;BME280_temperature;BME280_humidity;BME280_pressure;Samples;Min_cycle;Max_cycle;Signal;HPM_P1;HPM_P2
2022/06/03 00:00:21;;;;;;;19.23;9.90;;;;;;;21.78;60.83;95498.06;4941603;29;20138;-83
2022/06/03 00:02:55;;;;;;;26.10;10.57;;;;;;;22.32;60.23;95563.47;4952149;28;20062;-83
2022/06/03 00:05:54;;;;;;;25.88;10.10;;;;;;;22.38;60.17;95559.41;4951717;29;20031;-84
2022/06/03 00:08:45;;;;;;;28.73;11.48;;;;;;;22.21;60.90;95568.53;4952188;29;20031;-83
2022/06/03 00:11:41;;;;;;;19.17;10.13;;;;;;;22.18;61.24;95560.34;4901768;29;20487;-83
2022/06/03 00:14:18;;;;;;;22.65;10.60;;;;;;;22.22;61.09;95559.31;4926646;29;20523;-83
2022/06/03 00:17:07;;;;;;;28.17;10.60;;;;;;;21.88;61.13;95513.81;4944003;28;20417;-83
2022/06/03 00:19:47;;;;;;;26.88;10.60;;;;;;;22.13;61.51;95563.25;4925867;29;20134;-83
2022/06/03 00:22:12;;;;;;;22.13;11.20;;;;;;;22.16;61.17;95555.25;4932340;29;20062;-83
2022/06/03 00:25:15;;;;;;;20.73;10.55;;;;;;;22.18;60.87;95547.63;4914641;29;20043;-83
2022/06/03 00:27:52;;;;;;;24.27;9.32;;;;;;;22.06;60.88;95536.00;4950901;29;20089;-84
2022/06/03 00:30:33;;;;;;;17.15;9.45;;;;;;;22.17;60.97;95548.75;4942507;29;20039;-84
2022/06/03 00:33:01;;;;;;;22.38;8.98;;;;;;;22.18;60.66;95546.84;4925870;29;20627;-83
2022/06/03 00:35:56;;;;;;;22.77;9.65;;;;;;;22.21;60.58;95555.03;4920601;29;20585;-84
2022/06/03 00:38:42;;;;;;;22.45;8.98;;;;;;;21.94;61.49;95556.47;4931985;29;20486;-84
2022/06/03 00:41:48;;;;;;;20.88;9.13;;;;;;;22.02;61.19;95559.44;4919270;29;20028;-83
2022/06/03 00:44:35;;;;;;;18.95;9.45;;;;;;;22.09;61.04;95556.97;4864888;29;20040;-84
2022/06/03 00:47:21;;;;;;;18.15;8.75;;;;;;;21.91;60.58;95530.13;4924829;29;20033;-83
2022/06/03 00:49:49;;;;;;;20.42;8.80;;;;;;;22.05;60.93;95562.22;4950751;29;20047;-84
2022/06/03 00:52:36;;;;;;;19.40;8.63;;;;;;;22.01;61.05;95565.94;4935190;29;20043;-84
2022/06/03 00:55:32;;;;;;;21.00;8.93;;;;;;;22.08;60.77;95556.16;4933034;29;20420;-84
2022/06/03 00:58:20;;;;;;;22.30;8.93;;;;;;;22.05;61.09;95556.06;4951334;29;20031;-83
2022/06/03 01:01:07;;;;;;;20.27;9.20;;;;;;;21.61;61.12;95490.97;4886915;29;20090;-83
2022/06/03 01:03:51;;;;;;;14.32;8.00;;;;;;;21.67;61.44;95515.81;4896978;29;20051;-83
2022/06/03 01:06:40;;;;;;;20.17;8.27;;;;;;;21.89;61.86;95542.41;4929030;29;20097;-84
2022/06/03 01:09:43;;;;;;;18.52;9.18;;;;;;;21.94;61.89;95548.38;4925794;29;20043;-84
2022/06/03 01:12:12;;;;;;;18.50;8.18;;;;;;;21.92;61.86;95544.41;4871590;29;20089;-83
2022/06/03 01:14:49;;;;;;;19.55;8.52;;;;;;;21.89;61.92;95545.09;4920114;29;20058;-84
2022/06/03 01:17:35;;;;;;;17.77;8.30;;;;;;;21.91;61.81;95545.53;4918453;29;20078;-83
2022/06/03 01:20:09;;;;;;;20.23;9.18;;;;;;;21.89;61.80;95543.16;4933127;29;20042;-84
2022/06/03 01:23:11;;;;;;;24.05;8.45;;;;;;;21.92;61.69;95553.31;4951111;28;20046;-84
2022/06/03 01:26:02;;;;;;;18.83;9.10;;;;;;;21.91;61.40;95546.31;4949956;29;20414;-84
2022/06/03 01:29:01;;;;;;;21.67;9.02;;;;;;;21.87;61.71;95540.03;4917637;29;20059;-83
2022/06/03 01:31:49;;;;;;;21.88;9.30;;;;;;;21.87;61.62;95548.13;4917710;29;20051;-84
2022/06/03 01:35:02;;;;;;;17.63;7.85;;;;;;;21.87;61.71;95536.53;4925977;29;20048;-83
2022/06/03 01:37:34;;;;;;;17.98;8.13;;;;;;;21.84;61.46;95539.91;4947131;29;20059;-83
2022/06/03 01:40:30;;;;;;;17.77;8.43;;;;;;;21.88;61.24;95541.63;4936625;29;20039;-83
2022/06/03 01:43:27;;;;;;;20.63;8.70;;;;;;;21.29;61.17;95492.56;4941601;29;20039;-83
2022/06/03 01:46:14;;;;;;;16.17;7.82;;;;;;;21.02;60.75;95436.53;4954252;28;20046;-84
2022/06/03 01:48:59;;;;;;;28.15;7.22;;;;;;;21.59;60.49;95552.56;4941911;29;20547;-83
2022/06/03 01:51:52;;;;;;;12.20;6.07;;;;;;;21.53;59.68;95553.91;4952152;28;20071;-83
2022/06/03 01:55:12;;;;;;;12.18;5.63;;;;;;;21.50;59.74;95547.28;4954745;29;20489;-83
2022/06/03 01:57:59;;;;;;;10.48;5.78;;;;;;;21.56;59.82;95548.66;4845414;29;20137;-83
2022/06/03 02:00:38;;;;;;;16.45;5.88;;;;;;;21.44;59.92;95550.50;4946080;29;20055;-83
2022/06/03 02:03:50;;;;;;;10.93;5.50;;;;;;;21.38;59.89;95549.94;4934851;29;20095;-83
2022/06/03 02:06:18;;;;;;;12.45;5.93;;;;;;;21.39;59.92;95551.50;4918645;29;20066;-83
2022/06/03 02:09:02;;;;;;;11.70;5.65;;;;;;;21.41;59.90;95551.97;4953839;28;20094;-83
2022/06/03 02:11:54;;;;;;;20.70;5.57;;;;;;;21.23;60.17;95533.59;4937083;29;20047;-83
2022/06/03 02:14:31;;;;;;;15.55;6.05;;;;;;;21.44;60.08;95554.00;4937183;29;20031;-83
2022/06/03 02:17:09;;;;;;;10.02;5.72;;;;;;;21.34;60.04;95557.13;4902505;29;20043;-83
2022/06/03 02:19:40;;;;;;;10.98;5.63;;;;;;;21.33;60.42;95549.38;4954091;29;20023;-83
2022/06/03 02:22:24;;;;;;;13.27;6.50;;;;;;;21.38;60.33;95558.03;4936830;29;20111;-83
2022/06/03 02:25:25;;;;;;;10.50;6.18;;;;;;;20.67;61.11;95482.66;4942259;29;20459;-83
2022/06/03 02:28:05;;;;;;;18.27;6.75;;;;;;;21.29;61.01;95556.53;4950306;29;20114;-83
2022/06/03 02:30:49;;;;;;;25.02;6.53;;;;;;;21.25;61.27;95559.13;4952529;29;20035;-83
2022/06/03 02:33:14;;;;;;;21.95;6.65;;;;;;;21.26;61.49;95562.59;4949813;29;20042;-83
2022/06/03 02:36:11;;;;;;;13.45;6.57;;;;;;;21.13;61.89;95564.44;4917072;29;20023;-83
2022/06/03 02:38:46;;;;;;;14.13;6.93;;;;;;;21.16;61.77;95563.75;4927046;29;20540;-83
2022/06/03 02:41:30;;;;;;;15.13;6.65;;;;;;;21.19;61.71;95579.31;4935005;29;20039;-83
2022/06/03 02:44:40;;;;;;;18.10;6.18;;;;;;;20.80;63.32;95567.88;4936542;29;20059;-83
2022/06/03 02:47:34;;;;;;;15.15;7.05;;;;;;;20.90;62.99;95571.28;4901428;29;20066;-83
2022/06/03 02:50:18;;;;;;;16.35;6.15;;;;;;;20.98;62.67;95570.44;4944339;29;20553;-83
2022/06/03 02:53:02;;;;;;;16.30;6.65;;;;;;;20.93;62.71;95573.31;4938985;29;20111;-83
2022/06/03 02:55:37;;;;;;;16.13;6.63;;;;;;;20.96;62.61;95578.06;4951277;29;20490;-83
2022/06/03 02:58:21;;;;;;;21.55;7.72;;;;;;;20.66;62.86;95543.09;4953126;29;20023;-83
2022/06/03 03:01:15;;;;;;;17.85;7.78;;;;;;;20.56;62.60;95521.13;4952690;29;20087;-83
2022/06/03 03:04:19;;;;;;;16.73;7.32;;;;;;;20.85;63.31;95579.56;4935676;29;20046;-83
2022/06/03 03:07:26;;;;;;;17.48;7.38;;;;;;;20.69;63.87;95582.84;4891794;29;20821;-83
2022/06/03 03:09:58;;;;;;;15.40;6.68;;;;;;;20.29;65.31;95582.41;4895201;29;20083;-83
2022/06/03 03:12:42;;;;;;;;;;;;;;;20.33;65.23;95580.69;4939576;29;20035;-83
2022/06/03 03:15:28;;;;;;;19.23;7.35;;;;;;;20.58;64.36;95580.88;4943481;29;19923;-83
2022/06/03 03:18:00;;;;;;;15.55;7.63;;;;;;;20.63;64.00;95578.75;4933872;29;20035;-83
2022/06/03 03:21:02;;;;;;;23.70;7.65;;;;;;;20.56;64.28;95572.31;4947388;29;20094;-83
2022/06/03 03:24:01;;;;;;;17.33;7.60;;;;;;;20.44;64.89;95580.31;4915758;29;20036;-83
2022/06/03 03:27:11;;;;;;;17.33;7.78;;;;;;;20.60;64.67;95581.31;4935772;29;20114;-83
2022/06/03 03:29:43;;;;;;;17.35;7.45;;;;;;;20.70;63.95;95586.31;4934377;28;20032;-83
2022/06/03 03:32:17;;;;;;;20.08;8.35;;;;;;;20.79;64.16;95590.53;4935331;29;20482;-83
2022/06/03 03:35:07;;;;;;;20.83;8.35;;;;;;;20.84;63.95;95586.84;4952575;29;20039;-83
2022/06/03 03:38:05;;;;;;;25.42;8.93;;;;;;;20.90;63.56;95588.25;4947156;29;20088;-83
2022/06/03 03:40:46;;;;;;;16.88;8.18;;;;;;;20.95;63.31;95593.44;4933345;29;20083;-83
2022/06/03 03:43:25;;;;;;;20.77;7.93;;;;;;;20.68;63.73;95553.50;4945854;29;20039;-83
2022/06/03 03:46:21;;;;;;;21.40;8.05;;;;;;;20.98;63.71;95597.41;4935696;29;20040;-83
2022/06/03 03:49:09;;;;;;;20.55;8.23;;;;;;;21.02;63.73;95606.41;4918557;28;20379;-83
2022/06/03 03:51:43;;;;;;;20.38;9.07;;;;;;;21.06;63.60;95597.31;4951953;28;20051;-83
2022/06/03 03:54:46;;;;;;;24.50;8.38;;;;;;;21.01;63.20;95600.22;4935736;29;20035;-83
2022/06/03 03:57:52;;;;;;;24.98;8.50;;;;;;;20.36;63.52;95520.00;4935881;29;20036;-83
2022/06/03 04:00:54;;;;;;;24.88;9.27;;;;;;;21.04;63.07;95601.47;4948910;29;20063;-83
2022/06/03 04:03:38;;;;;;;12.45;8.13;;;;;;;21.02;62.87;95599.09;4942881;29;20121;-83
2022/06/03 04:06:16;;;;;;;13.48;7.85;;;;;;;21.11;62.51;95604.44;4919593;29;20035;-83
2022/06/03 04:08:53;;;;;;;18.83;8.63;;;;;;;21.08;62.68;95608.56;4948085;29;20053;-83
2022/06/03 04:11:46;;;;;;;23.30;8.65;;;;;;;21.26;62.20;95601.16;4933205;29;20074;-83
2022/06/03 04:14:53;;;;;;;22.73;8.80;;;;;;;21.34;61.89;95605.69;4925755;29;20035;-83
2022/06/03 04:17:31;;;;;;;21.25;9.02;;;;;;;21.36;61.55;95603.44;4931434;29;20081;-83
2022/06/03 04:20:08;;;;;;;27.70;9.13;;;;;;;21.48;61.36;95606.19;4934291;29;20233;-83
2022/06/03 04:23:01;;;;;;;23.27;8.77;;;;;;;21.61;61.05;95608.91;4933426;29;20362;-83
2022/06/03 04:26:07;;;;;;;30.17;8.98;;;;;;;21.58;60.81;95586.09;4925548;29;20039;-83
2022/06/03 04:28:59;;;;;;;37.33;8.98;;;;;;;21.22;61.08;95524.69;4927807;29;20459;-83
2022/06/03 04:31:36;;;;;;;19.08;8.75;;;;;;;21.86;60.41;95610.56;4914780;29;20158;-83
2022/06/03 04:34:39;;;;;;;21.77;8.00;;;;;;;21.83;60.11;95617.41;4917090;29;20046;-83
2022/06/03 04:37:32;;;;;;;31.20;9.23;;;;;;;21.90;60.08;95619.56;4919845;29;20039;-83
2022/06/03 04:40:49;;;;;;;25.63;7.43;;;;;;;21.68;60.54;95595.66;4924352;29;20560;-83
2022/06/03 04:43:33;;;;;;;17.42;7.70;;;;;;;21.96;60.90;95629.06;4933408;29;20091;-83
2022/06/03 04:46:23;;;;;;;28.33;7.93;;;;;;;22.00;61.05;95634.59;4928431;29;20334;-83
2022/06/03 04:49:26;;;;;;;17.25;7.22;;;;;;;21.99;61.15;95638.41;4932830;29;20040;-83
2022/06/03 04:52:13;;;;;;;17.35;7.70;;;;;;;21.80;60.84;95607.31;4921723;29;20454;-83
2022/06/03 04:55:00;;;;;;;24.00;8.30;;;;;;;22.01;60.69;95644.25;4936060;29;20028;-83
2022/06/03 04:58:02;;;;;;;21.98;9.27;;;;;;;21.99;60.62;95641.09;4937782;29;20636;-83
2022/06/03 05:00:51;;;;;;;18.17;8.65;;;;;;;22.08;60.33;95641.81;4915530;29;20154;-83
2022/06/03 05:03:39;;;;;;;26.42;8.57;;;;;;;21.96;60.15;95645.25;4895543;29;20078;-83
2022/06/03 05:06:33;;;;;;;18.40;9.27;;;;;;;22.13;59.65;95644.28;4938660;29;20119;-83
2022/06/03 05:09:36;;;;;;;20.17;8.15;;;;;;;22.23;59.14;95647.34;4928866;29;20115;-83
2022/06/03 05:12:47;;;;;;;21.90;9.20;;;;;;;22.21;59.25;95649.59;4933264;29;20047;-83
2022/06/03 05:15:21;;;;;;;20.08;9.23;;;;;;;22.30;59.19;95655.69;4926301;29;20454;-83
2022/06/03 05:18:10;;;;;;;23.48;9.82;;;;;;;22.38;59.20;95658.63;4927677;29;20062;-83
2022/06/03 05:21:18;;;;;;;24.90;9.70;;;;;;;21.69;59.58;95572.94;4912099;29;20258;-82
2022/06/03 05:24:02;;;;;;;18.80;8.30;;;;;;;22.32;59.57;95656.13;4926025;29;20039;-83
2022/06/03 05:27:05;;;;;;;21.88;8.27;;;;;;;22.32;59.30;95664.25;4914249;29;20035;-83
2022/06/03 05:29:43;;;;;;;27.08;8.85;;;;;;;22.05;58.75;95596.56;4920787;29;20523;-83
2022/06/03 05:32:30;;;;;;;27.83;8.15;;;;;;;22.26;59.66;95662.09;4914138;29;20038;-82
2022/06/03 05:35:14;;;;;;;18.40;8.45;;;;;;;21.30;60.00;95514.94;4927094;29;20421;-83
2022/06/03 05:38:02;;;;;;;31.98;8.70;;;;;;;22.31;60.10;95664.56;4927160;29;20099;-84
2022/06/03 05:40:37;;;;;;;16.15;8.27;;;;;;;22.18;60.52;95677.28;4931671;29;20035;-84
2022/06/03 05:43:14;;;;;;;25.73;9.23;;;;;;;22.21;60.48;95673.09;4926160;29;20035;-84
2022/06/03 05:46:17;;;;;;;16.38;8.50;;;;;;;22.32;60.32;95660.75;4932559;29;20427;-84
2022/06/03 05:48:46;;;;;;;29.63;8.73;;;;;;;22.08;60.88;95644.50;4932121;29;20064;-84
2022/06/03 05:51:24;;;;;;;22.33;8.40;;;;;;;22.11;61.08;95638.44;4917081;29;20458;-84
2022/06/03 05:54:17;;;;;;;26.80;7.75;;;;;;;22.10;61.99;95653.84;4931124;29;20042;-84
2022/06/03 05:56:57;;;;;;;23.98;7.90;;;;;;;21.94;61.98;95645.59;4907892;29;20505;-83
2022/06/03 06:00:04;;;;;;;20.45;7.45;;;;;;;21.97;61.72;95654.16;4917594;29;20054;-82
2022/06/03 06:02:54;;;;;;;20.85;7.30;;;;;;;21.78;62.20;95614.94;4931605;29;20039;-83
2022/06/03 06:05:46;;;;;;;17.63;8.00;;;;;;;22.07;62.15;95642.91;4916922;29;20070;-82
2022/06/03 06:08:29;;;;;;;18.25;7.97;;;;;;;22.27;61.42;95632.06;4909495;29;20546;-83
2022/06/03 06:11:16;;;;;;;22.00;8.07;;;;;;;21.47;60.98;95502.06;4924404;29;20722;-83
2022/06/03 06:14:23;;;;;;;21.38;7.53;;;;;;;22.44;60.53;95638.34;4928003;29;20050;-83
2022/06/03 06:16:49;;;;;;;23.30;7.93;;;;;;;22.59;60.62;95627.66;4865948;29;20045;-83
2022/06/03 06:19:27;;;;;;;19.98;7.65;;;;;;;22.49;60.01;95611.13;4901642;29;20058;-82
2022/06/03 06:22:09;;;;;;;24.83;9.10;;;;;;;22.54;60.13;95627.88;4931930;29;20546;-84
2022/06/03 06:24:34;;;;;;;17.77;7.53;;;;;;;22.66;59.76;95627.06;4931719;29;20040;-83
2022/06/03 06:27:15;;;;;;;19.55;6.97;;;;;;;22.65;60.01;95620.13;4923398;29;20060;-83
2022/06/03 06:29:48;;;;;;;25.90;7.55;;;;;;;22.81;59.78;95628.34;4939696;29;20035;-84
2022/06/03 06:32:50;;;;;;;20.27;8.23;;;;;;;22.90;59.57;95620.88;4939872;29;20039;-84
2022/06/03 06:35:44;;;;;;;26.20;8.40;;;;;;;22.97;59.29;95623.78;4934779;29;20039;-83
2022/06/03 06:38:22;;;;;;;25.45;8.10;;;;;;;23.03;59.57;95625.94;4920452;29;20399;-83
2022/06/03 06:40:53;;;;;;;26.73;7.57;;;;;;;23.02;59.12;95624.38;4931443;29;20525;-82
2022/06/03 06:43:50;;;;;;;19.15;7.40;;;;;;;23.12;59.30;95622.28;4925743;29;20066;-84
2022/06/03 06:46:29;;;;;;;19.90;6.00;;;;;;;22.92;57.62;95586.97;4922763;29;20040;-84
2022/06/03 06:49:13;;;;;;;14.48;7.50;;;;;;;23.34;57.12;95609.06;4920663;29;20035;-84
2022/06/03 06:51:45;;;;;;;15.75;6.68;;;;;;;23.16;57.01;95615.88;4909799;29;20039;-84
2022/06/03 06:54:40;;;;;;;21.10;6.75;;;;;;;22.68;58.38;95539.09;4915173;29;20051;-84
2022/06/03 06:57:24;;;;;;;19.70;6.88;;;;;;;22.99;57.91;95554.72;4885842;29;20117;-84
2022/06/03 07:00:00;;;;;;;14.48;6.65;;;;;;;23.24;57.94;95603.34;4931251;29;20043;-82
2022/06/03 07:02:40;;;;;;;17.00;6.53;;;;;;;22.80;57.87;95526.72;4911891;29;20577;-82
2022/06/03 07:05:32;;;;;;;17.65;6.50;;;;;;;23.39;57.95;95610.72;4911952;29;20868;-82
2022/06/03 07:08:12;;;;;;;17.05;6.63;;;;;;;22.92;57.37;95513.16;4915740;29;20082;-81
2022/06/03 07:10:46;;;;;;;22.45;7.10;;;;;;;23.53;56.89;95586.78;4929665;29;20039;-83
2022/06/03 07:13:30;;;;;;;13.00;6.07;;;;;;;23.19;56.04;95541.38;4914297;29;20035;-83
2022/06/03 07:16:04;;;;;;;16.42;6.28;;;;;;;23.64;55.48;95606.81;4922830;29;20520;-83
2022/06/03 07:21:38;;;;;;;17.63;6.13;;;;;;;23.99;54.29;95603.44;4924459;29;20661;-82
2022/06/03 07:24:29;;;;;;;14.27;5.43;;;;;;;23.09;54.08;95500.13;4927316;29;20083;-83
2022/06/03 07:27:00;;;;;;;17.80;6.78;;;;;;;23.25;54.86;95518.31;4908229;29;20524;-82
2022/06/03 07:29:41;;;;;;;16.92;6.20;;;;;;;22.91;54.56;95449.38;4907664;29;20092;-84
2022/06/03 07:32:18;;;;;;;;;;;;;;;23.92;54.89;95593.22;4914881;29;20040;-83
2022/06/03 07:34:59;;;;;;;12.70;6.45;;;;;;;23.51;54.83;95512.44;4928206;29;20405;-83
2022/06/03 07:37:31;;;;;;;13.00;5.75;;;;;;;24.17;54.38;95594.66;4907756;29;20145;-84
2022/06/03 07:40:02;;;;;;;17.38;6.95;;;;;;;24.22;54.21;95605.25;4913305;29;20102;-83
2022/06/03 07:42:49;;;;;;;15.18;5.95;;;;;;;23.68;53.42;95498.59;4925783;29;20032;-83
2022/06/03 07:45:23;;;;;;;21.48;6.78;;;;;;;24.40;53.72;95613.03;4906836;29;20047;-83
2022/06/03 07:47:50;;;;;;;17.15;6.43;;;;;;;24.08;53.17;95550.69;4919339;29;20554;-83
2022/06/03 07:50:21;;;;;;;20.67;7.15;;;;;;;24.28;52.87;95570.53;4899390;29;20142;-83
2022/06/03 07:53:19;;;;;;;13.63;5.72;;;;;;;24.63;52.86;95622.09;4894069;29;20039;-83
2022/06/03 07:55:51;;;;;;;13.57;6.63;;;;;;;24.68;52.90;95627.25;4892375;29;20051;-83
2022/06/03 07:58:18;;;;;;;20.60;6.60;;;;;;;24.80;52.93;95612.78;4904781;29;20067;-82
2022/06/03 08:00:46;;;;;;;12.85;6.10;;;;;;;24.81;52.33;95606.22;4907038;29;20044;-83
2022/06/03 08:03:22;;;;;;;15.52;6.72;;;;;;;25.06;52.37;95628.50;4899057;29;20035;-84
2022/06/03 08:05:55;;;;;;;25.27;7.13;;;;;;;24.89;52.52;95618.78;4936576;29;20185;-84
2022/06/03 08:11:17;;;;;;;13.25;5.53;;;;;;;24.94;51.02;95621.28;4926771;29;20127;-83
2022/06/03 08:13:44;;;;;;;12.18;5.38;;;;;;;25.05;50.80;95629.63;4927865;29;20051;-83
2022/06/03 08:16:22;;;;;;;17.92;6.07;;;;;;;25.31;51.29;95627.91;4922789;29;20571;-83
2022/06/03 08:18:48;;;;;;;10.48;6.05;;;;;;;24.83;51.33;95528.78;4915026;29;22600;-82
2022/06/03 08:21:24;;;;;;;9.43;5.18;;;;;;;24.64;50.79;95527.97;4912491;29;20049;-82
2022/06/03 08:23:51;;;;;;;17.85;6.75;;;;;;;24.92;51.10;95542.16;4924669;29;20023;-83
2022/06/03 08:26:22;;;;;;;12.27;5.25;;;;;;;24.77;50.14;95502.28;4924512;29;20417;-82
2022/06/03 08:28:52;;;;;;;14.20;5.97;;;;;;;25.69;50.64;95638.00;4923380;29;20419;-84
2022/06/03 08:31:22;;;;;;;20.08;6.78;;;;;;;25.24;50.13;95546.31;4921370;29;20458;-84
2022/06/03 08:33:52;;;;;;;13.93;5.78;;;;;;;25.37;49.28;95531.44;4923583;29;20118;-85
2022/06/03 08:36:22;;;;;;;12.07;5.60;;;;;;;25.69;50.38;95580.97;4902394;29;20153;-83
2022/06/03 08:38:54;;;;;;;15.15;5.60;;;;;;;26.12;49.91;95630.63;4929575;29;20031;-83
2022/06/03 08:41:57;;;;;;;13.13;5.40;;;;;;;25.95;50.27;95631.09;4909227;29;20102;-84
2022/06/03 08:44:49;;;;;;;15.73;6.18;;;;;;;25.96;50.43;95624.50;4926433;29;20027;-85
2022/06/03 08:47:44;;;;;;;16.02;5.50;;;;;;;26.20;49.67;95634.25;4915410;29;20651;-83
2022/06/03 08:50:28;;;;;;;17.50;6.53;;;;;;;25.69;48.88;95555.72;4897814;29;20486;-83
2022/06/03 08:53:14;;;;;;;10.27;5.30;;;;;;;26.08;49.50;95640.66;4914761;29;20073;-84
2022/06/03 08:55:49;;;;;;;17.05;6.50;;;;;;;25.95;49.87;95609.34;4927903;29;20043;-83
2022/06/03 08:58:28;;;;;;;15.13;6.15;;;;;;;26.12;48.13;95634.13;4919139;29;20129;-85
2022/06/03 09:01:32;;;;;;;14.32;5.60;;;;;;;26.05;48.78;95608.75;4912972;29;20518;-86
2022/06/03 09:04:20;;;;;;;15.88;5.90;;;;;;;25.68;48.64;95597.59;4903196;29;20215;-87
2022/06/03 09:07:16;;;;;;;18.10;5.57;;;;;;;25.98;48.24;95652.91;4918612;29;20118;-86
2022/06/03 09:09:49;;;;;;;12.25;5.38;;;;;;;25.85;48.11;95651.50;4914108;29;20028;-85
2022/06/03 09:12:30;;;;;;;19.52;5.80;;;;;;;25.87;49.23;95651.91;4930100;29;20036;-84
2022/06/03 09:15:11;;;;;;;12.63;5.13;;;;;;;25.54;49.00;95581.81;4910071;29;20299;-85
2022/06/03 09:18:07;;;;;;;13.52;5.38;;;;;;;26.05;48.78;95652.25;4907906;29;20082;-85
2022/06/03 09:20:39;;;;;;;16.25;6.32;;;;;;;26.08;48.79;95614.28;4922237;29;20122;-85
2022/06/03 09:23:08;;;;;;;10.90;5.97;;;;;;;25.96;50.07;95591.91;4922974;29;20038;-85
2022/06/03 09:25:41;;;;;;;15.10;6.35;;;;;;;25.94;49.74;95616.72;4906705;29;20046;-86
2022/06/03 09:28:13;;;;;;;16.30;6.55;;;;;;;26.04;48.66;95613.41;4931434;29;20046;-84
2022/06/03 09:30:39;;;;;;;11.68;5.63;;;;;;;26.30;47.88;95658.94;4916149;29;20066;-86
2022/06/03 09:33:08;;;;;;;11.10;5.22;;;;;;;25.38;48.64;95499.66;4939300;29;20032;-86
2022/06/03 09:35:38;;;;;;;13.63;5.25;;;;;;;26.12;47.71;95617.03;4927571;29;20043;-86
2022/06/03 09:38:10;;;;;;;15.25;5.63;;;;;;;26.49;47.88;95647.19;4927169;29;20036;-85
2022/06/03 09:40:42;;;;;;;10.80;4.93;;;;;;;26.08;46.23;95584.38;4929332;29;20156;-87
2022/06/03 09:43:37;;;;;;;12.43;6.28;;;;;;;26.68;45.22;95643.63;4929162;29;20387;-86
2022/06/03 09:46:11;;;;;;;14.77;4.57;;;;;;;25.93;43.77;95519.28;4922802;29;20202;-86
2022/06/03 09:48:37;;;;;;;11.27;5.07;;;;;;;26.86;43.63;95652.84;4917074;29;20074;-85
2022/06/03 09:51:24;;;;;;;12.27;4.95;;;;;;;26.84;43.48;95655.16;4916114;29;20508;-86
2022/06/03 09:53:50;;;;;;;14.32;5.25;;;;;;;26.67;42.84;95628.44;4914409;29;20043;-85
2022/06/03 09:56:29;;;;;;;9.55;4.75;;;;;;;25.87;42.96;95507.13;4917139;29;20062;-86
2022/06/03 09:58:59;;;;;;;8.70;4.32;;;;;;;26.76;42.78;95654.25;4926055;29;20060;-86
2022/06/03 10:01:26;;;;;;;16.08;4.63;;;;;;;26.65;42.97;95644.34;4928373;29;20090;-85
2022/06/03 10:03:56;;;;;;;17.60;5.45;;;;;;;25.84;43.48;95556.75;4924593;29;20039;-85
2022/06/03 10:14:33;;;;;;;9.05;5.20;;;;;;;26.86;42.37;95580.16;4927439;29;20123;-84
2022/06/03 10:16:58;;;;;;;15.07;5.20;;;;;;;26.94;42.71;95547.59;4918280;29;20305;-84
2022/06/03 10:19:24;;;;;;;11.35;5.45;;;;;;;27.65;42.53;95639.19;4925141;29;20046;-83
2022/06/03 10:21:56;;;;;;;12.40;5.78;;;;;;;25.91;43.17;95320.50;4917798;29;20035;-84
2022/06/03 10:24:32;;;;;;;17.48;5.00;;;;;;;28.13;43.43;95661.91;4924125;29;20035;-83
2022/06/03 10:27:00;;;;;;;12.32;5.28;;;;;;;26.99;42.87;95441.94;4912111;29;20051;-84
2022/06/03 10:29:26;;;;;;;18.00;4.80;;;;;;;27.85;42.43;95566.19;4919935;29;20087;-84
2022/06/03 10:32:01;;;;;;;18.75;6.05;;;;;;;27.91;41.77;95526.56;4916422;29;20303;-84
2022/06/03 10:34:36;;;;;;;15.68;6.35;;;;;;;26.95;41.75;95415.84;4931857;29;20854;-84
2022/06/03 10:37:07;;;;;;;9.77;5.40;;;;;;;26.91;41.63;95415.81;4932634;29;20068;-84
2022/06/03 10:39:33;;;;;;;15.80;6.25;;;;;;;27.93;41.10;95609.50;4924097;29;20126;-84
2022/06/03 10:42:00;;;;;;;10.95;6.05;;;;;;;27.46;41.89;95511.31;4934466;29;20126;-84
2022/06/03 10:44:28;;;;;;;12.10;5.95;;;;;;;27.72;41.11;95543.09;4936365;29;20066;-84
2022/06/03 10:46:58;;;;;;;11.68;4.93;;;;;;;27.94;42.30;95569.41;4927139;29;20047;-85
2022/06/03 10:49:27;;;;;;;16.38;5.28;;;;;;;28.14;42.36;95581.69;4933219;29;20045;-84
2022/06/03 11:03:07;;;;;;;15.10;5.53;;;;;;;31.21;36.53;95615.97;4934082;29;20050;-83
2022/06/03 11:05:36;;;;;;;14.57;5.35;;;;;;;31.64;35.29;95616.66;4933034;29;20050;-84
2022/06/03 11:08:03;;;;;;;10.25;4.28;;;;;;;31.63;34.21;95615.09;4934673;29;20775;-84
2022/06/03 11:10:34;;;;;;;12.00;4.82;;;;;;;31.46;34.45;95503.53;4936711;29;20042;-84
2022/06/03 11:13:02;;;;;;;12.38;4.72;;;;;;;32.45;33.28;95598.91;4925326;29;20054;-84
2022/06/03 11:15:37;;;;;;;7.90;4.47;;;;;;;32.14;33.01;95507.41;4932051;29;20028;-84
2022/06/03 11:18:32;;;;;;;14.30;5.13;;;;;;;32.74;32.50;95601.44;4928469;29;20035;-84
2022/06/03 11:21:26;;;;;;;14.23;4.40;;;;;;;32.27;32.41;95553.59;4918419;29;20122;-84
2022/06/03 11:24:00;;;;;;;14.85;4.63;;;;;;;32.87;31.75;95553.09;4934326;29;20474;-84
2022/06/03 11:26:37;;;;;;;10.02;4.55;;;;;;;33.52;31.11;95587.69;4932649;29;20054;-84
2022/06/03 11:29:08;;;;;;;13.32;4.70;;;;;;;33.54;30.59;95557.81;4929244;29;20041;-84
2022/06/03 11:31:39;;;;;;;17.48;5.68;;;;;;;34.01;31.05;95567.03;4930097;29;20851;-84
2022/06/03 11:34:16;;;;;;;10.52;5.28;;;;;;;33.91;30.16;95520.41;4930362;29;20502;-84
2022/06/03 11:36:49;;;;;;;13.18;5.25;;;;;;;34.15;29.24;95522.00;4922112;29;20102;-84
2022/06/03 11:39:36;;;;;;;13.18;4.70;;;;;;;34.74;29.55;95571.00;4922824;29;20024;-84
2022/06/03 11:42:11;;;;;;;10.23;4.50;;;;;;;34.07;29.95;95520.53;4915730;29;20027;-84
2022/06/03 11:44:50;;;;;;;10.55;4.47;;;;;;;34.55;29.75;95557.94;4922447;29;20042;-84
2022/06/03 11:47:24;;;;;;;12.20;5.13;;;;;;;33.63;29.71;95472.06;4929815;29;20098;-85
2022/06/03 11:49:50;;;;;;;13.10;4.40;;;;;;;33.71;29.83;95536.78;4938309;29;20038;-84
2022/06/03 11:52:16;;;;;;;11.00;4.63;;;;;;;33.19;29.93;95484.78;4934000;29;20039;-83
2022/06/03 11:54:45;;;;;;;13.30;4.32;;;;;;;34.15;30.01;95527.50;4935553;29;20383;-84
2022/06/03 11:57:11;;;;;;;6.88;4.03;;;;;;;34.30;28.45;95553.63;4934720;29;20402;-84
2022/06/03 11:59:45;;;;;;;7.45;3.80;;;;;;;34.78;27.82;95557.97;4914519;29;20056;-85
2022/06/03 12:02:17;;;;;;;12.43;3.53;;;;;;;34.34;26.99;95546.06;4931002;29;20023;-84
2022/06/03 12:05:03;;;;;;;10.68;4.00;;;;;;;33.15;28.14;95458.56;4913950;29;20046;-84
2022/06/03 12:07:41;;;;;;;6.90;3.53;;;;;;;33.76;28.26;95547.34;4920947;29;20041;-84
2022/06/03 12:10:28;;;;;;;7.40;3.63;;;;;;;34.00;27.62;95548.94;4926856;29;20078;-84
2022/06/03 12:13:31;;;;;;;6.03;3.70;;;;;;;34.05;26.90;95551.22;4925060;29;20040;-83
2022/06/03 12:15:56;;;;;;;11.02;3.78;;;;;;;33.92;27.10;95546.72;4935068;29;20054;-84
2022/06/03 12:18:35;;;;;;;9.13;3.72;;;;;;;33.87;27.14;95547.19;4920615;29;20405;-84
2022/06/03 12:21:14;;;;;;;9.63;3.05;;;;;;;33.88;26.70;95545.97;4928749;29;20043;-84
2022/06/03 12:23:41;;;;;;;10.57;3.38;;;;;;;33.91;27.02;95548.69;4935319;29;20034;-84
2022/06/03 12:26:16;;;;;;;11.80;3.95;;;;;;;34.17;26.79;95543.59;4929182;29;20510;-83
2022/06/03 12:28:47;;;;;;;11.55;4.03;;;;;;;33.44;27.20;95484.50;4936823;29;20042;-84
2022/06/03 12:31:19;;;;;;;10.13;4.07;;;;;;;34.27;26.43;95554.44;4931733;29;20043;-84
2022/06/03 12:34:03;;;;;;;9.25;4.05;;;;;;;34.18;27.20;95554.16;4927670;29;20035;-84
2022/06/03 12:36:47;;;;;;;7.22;3.30;;;;;;;33.65;26.39;95550.19;4929631;29;20455;-84
2022/06/03 12:39:18;;;;;;;7.30;3.08;;;;;;;33.33;26.62;95550.63;4939190;29;20086;-84
2022/06/03 12:41:44;;;;;;;11.73;3.53;;;;;;;33.39;26.98;95553.69;4928778;29;20035;-85
2022/06/03 12:44:35;;;;;;;12.18;5.93;;;;;;;33.08;27.89;95561.09;4939687;29;20067;-84
2022/06/03 12:47:29;;;;;;;;;;;;;;;32.89;28.81;95551.47;4929374;29;21107;-84
2022/06/03 12:49:57;;;;;;;14.60;4.00;;;;;;;32.82;28.89;95548.00;4924694;29;20393;-84
2022/06/03 12:52:25;;;;;;;8.57;3.92;;;;;;;32.58;28.58;95544.28;4921217;29;20433;-84
2022/06/03 12:55:29;;;;;;;8.27;3.63;;;;;;;32.08;28.51;95478.84;4931284;29;20035;-84
2022/06/03 12:58:01;;;;;;;11.80;4.35;;;;;;;31.31;29.96;95486.38;4918121;29;20053;-84
2022/06/03 13:00:35;;;;;;;12.23;3.92;;;;;;;30.88;31.23;95482.25;4915499;29;20039;-84